Time;durP1;ratioP1;P1;durP2;ratioP2;P2;SDS_P1;SDS_P2;PMS_P1;PMS_P2;Temp;Humidity;BMP_temperature;BMP_pressure;BME280_temperature;BME280_humidity;BME280_pressure;Samples;Min_cycle;Max_cycle;Signal;HPM_P1;HPM_P2
2023/04/02 00:01:43;;;;;;;0.10;0.10;;;;;;;5.86;88.71;99133.41;4985029;28;20050;-69
2023/04/02 00:04:22;;;;;;;0.10;0.10;;;;;;;5.79;88.48;99113.78;5003097;28;20508;-69
2023/04/02 00:06:53;;;;;;;0.10;0.10;;;;;;;5.92;88.45;99124.22;5000589;28;20183;-69
2023/04/02 00:09:28;;;;;;;0.10;0.10;;;;;;;5.94;88.31;99135.63;5000632;28;20050;-69
2023/04/02 00:11:55;;;;;;;0.20;0.20;;;;;;;5.93;88.26;99130.44;5001259;28;20045;-69
2023/04/02 00:14:24;;;;;;;0.10;0.10;;;;;;;5.89;88.14;99118.47;5002928;28;20076;-69
2023/04/02 00:16:51;;;;;;;0.10;0.10;;;;;;;6.03;88.20;99146.84;4998465;28;20043;-69
2023/04/02 00:19:22;;;;;;;0.10;0.10;;;;;;;6.03;88.12;99149.53;5003998;28;20046;-68
2023/04/02 00:21:51;;;;;;;0.10;0.10;;;;;;;6.04;88.00;99151.19;5000251;28;20534;-69
2023/04/02 00:24:20;;;;;;;0.13;0.13;;;;;;;6.06;87.90;99151.75;5000590;28;20064;-68
2023/04/02 00:26:47;;;;;;;0.20;0.20;;;;;;;6.10;87.91;99157.47;5005820;28;20160;-69
2023/04/02 00:29:16;;;;;;;0.15;0.15;;;;;;;6.13;87.51;99148.78;5004723;28;20045;-69
2023/04/02 00:31:45;;;;;;;0.10;0.10;;;;;;;6.08;87.48;99148.78;4985273;28;20105;-69
2023/04/02 00:34:18;;;;;;;0.10;0.10;;;;;;;6.15;87.63;99162.13;4984076;28;20149;-69
2023/04/02 00:36:47;;;;;;;0.10;0.10;;;;;;;6.20;87.42;99157.53;4982237;28;20107;-69
2023/04/02 00:39:20;;;;;;;0.10;0.10;;;;;;;6.19;87.50;99157.78;5000769;28;20768;-69
2023/04/02 00:41:46;;;;;;;0.10;0.10;;;;;;;6.18;87.40;99169.75;5003092;28;20060;-69
2023/04/02 00:44:14;;;;;;;0.10;0.10;;;;;;;6.16;87.33;99164.56;4997614;28;20595;-69
2023/04/02 00:46:45;;;;;;;0.10;0.10;;;;;;;6.16;87.51;99156.41;5001557;28;20532;-69
2023/04/02 00:49:19;;;;;;;0.10;0.10;;;;;;;6.17;87.41;99166.22;5020736;28;20046;-70
2023/04/02 00:51:50;;;;;;;0.10;0.10;;;;;;;6.14;87.54;99160.50;5005323;28;20060;-69
2023/04/02 00:54:20;;;;;;;0.20;0.20;;;;;;;6.17;87.52;99174.38;5000381;28;20131;-68
2023/04/02 00:56:51;;;;;;;0.20;0.20;;;;;;;6.20;87.59;99178.44;5000921;28;20488;-69
2023/04/02 00:59:24;;;;;;;0.20;0.20;;;;;;;6.19;87.67;99166.78;5003148;28;20048;-69
2023/04/02 01:01:53;;;;;;;0.10;0.10;;;;;;;6.22;87.35;99170.84;5002499;28;20053;-68
2023/04/02 01:04:33;;;;;;;0.10;0.10;;;;;;;6.24;87.52;99165.97;5014491;28;20045;-68
2023/04/02 01:07:03;;;;;;;0.10;0.10;;;;;;;6.25;87.50;99162.19;4998966;28;20115;-69
2023/04/02 01:09:46;;;;;;;0.20;0.20;;;;;;;6.21;87.49;99180.06;4971583;28;20563;-68
2023/04/02 01:12:41;;;;;;;0.10;0.10;;;;;;;6.17;87.59;99165.38;5003751;28;20421;-67
2023/04/02 01:15:15;;;;;;;0.13;0.13;;;;;;;6.19;87.66;99169.50;5001064;28;20096;-68
2023/04/02 01:18:12;;;;;;;0.35;0.30;;;;;;;6.21;87.69;99171.94;4998718;28;20406;-68
2023/04/02 01:21:07;;;;;;;0.13;0.13;;;;;;;6.19;87.78;99164.06;5002114;28;20569;-68
2023/04/02 01:23:45;;;;;;;0.10;0.10;;;;;;;6.19;87.52;99163.22;5001992;28;20058;-68
2023/04/02 01:26:21;;;;;;;0.10;0.10;;;;;;;6.22;87.44;99166.25;5001197;28;20679;-68
2023/04/02 01:29:01;;;;;;;0.10;0.10;;;;;;;6.27;87.53;99167.34;4966462;28;20474;-70
2023/04/02 01:31:29;;;;;;;0.15;0.15;;;;;;;6.29;87.43;99167.91;4975414;28;20046;-68
2023/04/02 01:33:55;;;;;;;0.10;0.10;;;;;;;6.25;87.51;99154.06;5000757;28;20100;-69
2023/04/02 01:36:29;;;;;;;0.20;0.20;;;;;;;6.28;87.32;99160.84;5002529;28;20053;-69
2023/04/02 01:39:03;;;;;;;0.20;0.20;;;;;;;6.25;87.24;99162.19;5001772;28;20073;-69
2023/04/02 01:41:35;;;;;;;0.20;0.20;;;;;;;6.31;87.45;99163.03;4996736;28;20096;-69
2023/04/02 01:44:07;;;;;;;0.10;0.10;;;;;;;6.34;87.36;99168.75;4984385;28;20061;-69
2023/04/02 01:46:39;;;;;;;0.10;0.10;;;;;;;6.34;86.88;99162.53;5000481;28;20041;-70
2023/04/02 01:49:11;;;;;;;0.15;0.15;;;;;;;6.34;87.04;99157.91;5002654;28;20580;-69
2023/04/02 01:51:42;;;;;;;0.20;0.20;;;;;;;6.34;86.87;99157.91;5000159;28;20140;-68
2023/04/02 01:54:09;;;;;;;0.10;0.10;;;;;;;6.30;86.92;99150.53;4998292;28;20054;-68
2023/04/02 01:56:36;;;;;;;0.10;0.10;;;;;;;6.31;86.95;99155.72;5001045;28;20030;-68
2023/04/02 01:59:04;;;;;;;0.10;0.10;;;;;;;6.29;87.00;99163.31;5016900;28;20092;-68
2023/04/02 02:01:38;;;;;;;0.10;0.10;;;;;;;6.29;86.95;99157.88;4985836;28;20050;-69
2023/04/02 02:04:06;;;;;;;0.10;0.10;;;;;;;6.28;87.05;99156.25;5017699;28;20521;-68
2023/04/02 02:06:32;;;;;;;0.20;0.20;;;;;;;6.32;86.65;99156.50;5002459;28;20054;-68
2023/04/02 02:09:02;;;;;;;0.10;0.10;;;;;;;6.29;86.65;99154.31;4998334;28;20046;-69
2023/04/02 02:11:31;;;;;;;0.10;0.10;;;;;;;6.27;86.69;99154.59;4980454;28;20050;-68
2023/04/02 02:14:00;;;;;;;0.10;0.10;;;;;;;6.25;86.85;99154.06;5000103;28;20092;-69
2023/04/02 02:16:30;;;;;;;0.20;0.20;;;;;;;6.28;86.83;99155.41;4999565;28;20124;-68
2023/04/02 02:18:59;;;;;;;0.20;0.20;;;;;;;6.29;86.73;99155.16;4997155;28;20054;-68
2023/04/02 02:21:36;;;;;;;0.10;0.10;;;;;;;6.27;86.49;99159.19;4996702;28;20054;-68
2023/04/02 02:24:04;;;;;;;0.10;0.10;;;;;;;6.22;86.62;99151.84;5002515;28;20062;-68
2023/04/02 02:26:34;;;;;;;0.10;0.10;;;;;;;6.23;86.73;99158.91;5003733;28;20056;-69
2023/04/02 02:29:06;;;;;;;0.10;0.10;;;;;;;6.23;86.69;99157.03;4983933;28;20535;-69
2023/04/02 02:31:36;;;;;;;0.15;0.15;;;;;;;6.22;86.73;99159.97;5001762;28;20429;-68
2023/04/02 02:34:07;;;;;;;0.10;0.10;;;;;;;6.19;86.48;99163.22;5004120;28;20133;-68
2023/04/02 02:36:44;;;;;;;0.10;0.10;;;;;;;6.19;86.44;99163.22;4988645;28;20136;-69
2023/04/02 02:39:16;;;;;;;0.20;0.20;;;;;;;6.22;86.62;99168.97;4988524;28;20045;-69
2023/04/02 02:41:51;;;;;;;0.20;0.20;;;;;;;6.24;86.51;99179.53;5021156;28;20133;-70
2023/04/02 02:44:22;;;;;;;0.10;0.10;;;;;;;6.23;86.28;99170.59;4987653;28;20061;-69
2023/04/02 02:46:53;;;;;;;0.10;0.10;;;;;;;6.26;86.26;99171.97;5002746;28;20073;-69
2023/04/02 02:49:24;;;;;;;0.10;0.10;;;;;;;6.26;86.14;99166.56;4991414;28;20045;-69
2023/04/02 02:51:57;;;;;;;0.20;0.20;;;;;;;6.32;85.76;99170.91;5001042;28;20454;-69
2023/04/02 02:54:31;;;;;;;0.10;0.10;;;;;;;6.32;85.67;99176.34;5020647;28;20406;-69
2023/04/02 02:57:02;;;;;;;0.10;0.10;;;;;;;6.33;85.63;99177.97;4985214;28;20046;-69
2023/04/02 02:59:30;;;;;;;0.20;0.20;;;;;;;6.33;85.34;99177.97;5020873;28;20038;-69
2023/04/02 03:01:59;;;;;;;0.10;0.10;;;;;;;6.31;85.34;99173.88;5002574;28;20042;-69
2023/04/02 03:04:29;;;;;;;0.13;0.13;;;;;;;6.34;85.16;99176.91;4970003;28;20057;-68
2023/04/02 03:06:57;;;;;;;0.15;0.15;;;;;;;6.35;85.10;99188.59;5008168;28;20400;-69
2023/04/02 03:09:36;;;;;;;0.10;0.10;;;;;;;6.32;84.96;99184.50;5005271;28;20104;-68
2023/04/02 03:12:22;;;;;;;0.17;0.17;;;;;;;6.31;84.92;99188.28;4998023;28;20042;-68
2023/04/02 03:14:57;;;;;;;0.10;0.10;;;;;;;6.29;84.71;99185.03;5003195;28;20405;-68
2023/04/02 03:17:31;;;;;;;0.10;0.10;;;;;;;6.31;84.75;99187.47;5004379;28;20425;-68
2023/04/02 03:20:05;;;;;;;0.13;0.13;;;;;;;6.33;84.62;99196.19;5018889;28;20058;-69
2023/04/02 03:22:37;;;;;;;0.20;0.20;;;;;;;6.32;84.58;99189.09;4999532;28;20116;-69
2023/04/02 03:25:15;;;;;;;0.20;0.20;;;;;;;6.30;84.38;99191.25;5001353;28;20046;-69
2023/04/02 03:27:44;;;;;;;;;;;;;;;6.28;84.35;99199.69;5004885;28;20050;-69
2023/04/02 03:30:26;;;;;;;0.10;0.10;;;;;;;6.27;84.20;99184.47;5000413;28;20344;-70
2023/04/02 03:32:59;;;;;;;0.10;0.10;;;;;;;6.27;84.23;99197.22;5003462;28;20536;-69
2023/04/02 03:35:31;;;;;;;0.10;0.10;;;;;;;6.30;84.16;99191.25;5004022;28;20547;-69
2023/04/02 03:38:01;;;;;;;0.10;0.10;;;;;;;6.28;84.25;99201.56;4999273;28;20049;-69
2023/04/02 03:40:33;;;;;;;0.10;0.10;;;;;;;6.30;84.12;99194.81;5002543;28;20104;-69
2023/04/02 03:43:05;;;;;;;0.10;0.10;;;;;;;6.35;83.65;99194.81;5003496;28;20050;-69
2023/04/02 03:45:37;;;;;;;0.10;0.10;;;;;;;6.34;83.45;99187.75;4994478;28;20759;-69
2023/04/02 03:48:11;;;;;;;0.10;0.10;;;;;;;6.39;83.25;99189.69;5001335;28;20041;-69
2023/04/02 03:50:43;;;;;;;0.10;0.10;;;;;;;6.34;83.13;99182.34;5002216;28;20096;-69
2023/04/02 03:53:10;;;;;;;0.10;0.10;;;;;;;6.42;83.01;99199.22;5020352;28;20501;-71
2023/04/02 03:55:39;;;;;;;0.10;0.10;;;;;;;6.27;82.70;99179.03;5002615;28;20092;-71
2023/04/02 03:58:15;;;;;;;0.10;0.10;;;;;;;6.46;82.71;99200.34;5005436;28;20137;-71
2023/04/02 04:00:49;;;;;;;0.10;0.10;;;;;;;6.48;82.32;99199.00;4985150;28;20070;-71
2023/04/02 04:03:20;;;;;;;0.10;0.10;;;;;;;6.48;82.12;99203.59;4985949;28;20441;-71
2023/04/02 04:05:51;;;;;;;0.10;0.10;;;;;;;6.52;81.95;99199.28;4998814;28;20046;-71
2023/04/02 04:08:20;;;;;;;0.20;0.20;;;;;;;6.57;81.67;99199.31;5002165;28;20042;-71
2023/04/02 04:10:51;;;;;;;0.47;0.20;;;;;;;6.60;81.47;99195.25;5003506;28;20780;-71
2023/04/02 04:13:23;;;;;;;0.20;0.20;;;;;;;6.57;81.20;99195.78;5002436;28;20096;-71
2023/04/02 04:15:56;;;;;;;0.13;0.13;;;;;;;6.58;80.63;99190.09;5002169;28;20496;-71
2023/04/02 04:18:33;;;;;;;0.20;0.20;;;;;;;6.59;80.41;99180.84;5004356;28;20050;-71
2023/04/02 04:21:10;;;;;;;0.10;0.10;;;;;;;6.65;80.20;99198.00;4996991;28;20050;-71
2023/04/02 04:23:40;;;;;;;0.20;0.20;;;;;;;6.70;80.10;99199.91;4998995;28;20054;-71
2023/04/02 04:26:19;;;;;;;0.10;0.10;;;;;;;6.75;79.31;99203.47;5003880;28;20077;-71
2023/04/02 04:28:59;;;;;;;0.20;0.20;;;;;;;6.65;79.09;99198.81;5001947;28;20428;-71
2023/04/02 04:31:37;;;;;;;0.10;0.10;;;;;;;6.75;79.25;99208.09;5002303;28;20053;-72
2023/04/02 04:34:10;;;;;;;;;;;;;;;6.72;78.87;99224.94;5004515;28;20041;-71
2023/04/02 04:36:46;;;;;;;0.20;0.20;;;;;;;6.62;78.89;99223.78;4997383;28;19926;-70
2023/04/02 04:39:20;;;;;;;0.10;0.10;;;;;;;6.64;78.90;99220.81;5002478;28;20068;-70
2023/04/02 04:41:49;;;;;;;0.10;0.10;;;;;;;6.62;79.04;99218.34;4998919;28;20618;-70
2023/04/02 04:44:22;;;;;;;0.20;0.20;;;;;;;6.62;79.20;99223.78;4998194;28;20516;-70
2023/04/02 04:46:57;;;;;;;0.10;0.10;;;;;;;6.67;79.20;99236.59;5003493;28;20062;-70
2023/04/02 04:49:31;;;;;;;0.15;0.15;;;;;;;6.64;78.73;99231.69;4997117;28;20046;-71
2023/04/02 04:52:04;;;;;;;0.20;0.20;;;;;;;6.65;79.12;99230.59;4999395;28;20153;-70
2023/04/02 04:54:30;;;;;;;0.10;0.10;;;;;;;6.62;78.95;99226.50;4668791;28;10000210;-70
2023/04/02 04:57:01;;;;;;;;;;;;;;;6.71;78.61;99250.44;4997932;28;20050;-71
2023/04/02 04:59:32;;;;;;;0.10;0.10;;;;;;;6.50;78.32;99209.59;4998376;28;19929;-70
2023/04/02 05:02:04;;;;;;;0.17;0.17;;;;;;;6.68;78.33;99230.06;4998605;28;20533;-71
2023/04/02 05:04:36;;;;;;;0.10;0.10;;;;;;;6.70;78.26;99235.22;4998759;28;20052;-71
2023/04/02 05:07:08;;;;;;;0.17;0.17;;;;;;;6.67;78.20;99240.13;4993710;28;20053;-71
2023/04/02 05:09:38;;;;;;;0.10;0.10;;;;;;;6.69;78.16;99241.75;5001012;28;20041;-70
2023/04/02 05:12:15;;;;;;;0.10;0.10;;;;;;;6.70;78.06;99237.94;4996876;28;20061;-71
2023/04/02 05:14:50;;;;;;;0.20;0.20;;;;;;;6.71;77.93;99242.31;5000421;28;20057;-71
2023/04/02 05:17:22;;;;;;;0.20;0.20;;;;;;;6.69;78.01;99237.16;4998251;28;20054;-70
2023/04/02 05:19:55;;;;;;;0.17;0.17;;;;;;;6.72;77.85;99242.06;4993716;28;20064;-70
2023/04/02 05:22:29;;;;;;;0.10;0.10;;;;;;;6.71;77.92;99247.72;4990032;28;20062;-70
2023/04/02 05:25:09;;;;;;;0.30;0.20;;;;;;;6.62;78.23;99248.25;4996839;28;20066;-70
2023/04/02 05:27:41;;;;;;;0.10;0.10;;;;;;;6.63;78.29;99251.75;4978448;28;20041;-70
2023/04/02 05:30:20;;;;;;;0.13;0.13;;;;;;;6.65;78.51;99247.72;5000675;28;20121;-69
2023/04/02 05:32:50;;;;;;;0.10;0.10;;;;;;;6.63;78.51;99243.59;4998145;28;20120;-68
2023/04/02 05:35:24;;;;;;;0.10;0.10;;;;;;;6.59;78.49;99261.53;5000396;28;20053;-68
2023/04/02 05:37:51;;;;;;;0.10;0.10;;;;;;;6.59;78.62;99253.38;4999400;28;20061;-68
2023/04/02 05:40:25;;;;;;;0.10;0.10;;;;;;;6.56;78.84;99264.75;5004945;28;20056;-68
2023/04/02 05:42:52;;;;;;;0.10;0.10;;;;;;;6.61;78.93;99262.06;5004249;28;20332;-70
2023/04/02 05:45:25;;;;;;;0.20;0.20;;;;;;;6.64;78.57;99254.22;4983812;28;20154;-71
2023/04/02 05:48:00;;;;;;;0.20;0.20;;;;;;;6.66;78.49;99264.84;4999362;28;20058;-71
2023/04/02 05:50:36;;;;;;;0.10;0.10;;;;;;;6.67;78.21;99272.72;5009521;28;20042;-71
2023/04/02 05:53:10;;;;;;;0.10;0.10;;;;;;;6.69;77.80;99267.03;4997482;28;20065;-71
2023/04/02 05:55:52;;;;;;;0.10;0.10;;;;;;;6.55;78.09;99272.09;4996179;28;20038;-70
2023/04/02 05:58:27;;;;;;;0.10;0.10;;;;;;;6.58;78.49;99265.31;4998292;28;20288;-72
2023/04/02 06:01:06;;;;;;;0.10;0.10;;;;;;;6.63;78.54;99268.88;5000869;28;20425;-71
2023/04/02 06:03:44;;;;;;;0.10;0.10;;;;;;;6.74;78.04;99271.69;4999773;28;20058;-71
2023/04/02 06:06:21;;;;;;;0.20;0.20;;;;;;;6.78;77.85;99262.72;4998459;28;20050;-70
2023/04/02 06:08:55;;;;;;;0.20;0.20;;;;;;;6.77;77.61;99261.09;5005115;28;20096;-70
2023/04/02 06:11:26;;;;;;;0.17;0.17;;;;;;;6.75;77.69;99263.25;5003685;28;20509;-70
2023/04/02 06:13:53;;;;;;;0.17;0.17;;;;;;;6.66;77.79;99259.41;5024083;28;20050;-70
2023/04/02 06:16:25;;;;;;;0.20;0.20;;;;;;;6.72;77.42;99263.78;5002819;28;20070;-70
2023/04/02 06:18:52;;;;;;;0.10;0.10;;;;;;;6.67;77.71;99277.34;5002763;28;20509;-71
2023/04/02 06:21:21;;;;;;;0.20;0.20;;;;;;;6.72;77.49;99271.94;5006856;28;20141;-70
2023/04/02 06:23:54;;;;;;;0.10;0.10;;;;;;;6.85;77.41;99272.56;5005738;28;20061;-70
2023/04/02 06:26:26;;;;;;;0.10;0.10;;;;;;;7.00;76.86;99269.09;5004485;28;20073;-71
2023/04/02 06:28:58;;;;;;;0.10;0.10;;;;;;;7.04;76.50;99262.06;4993412;28;20050;-71
2023/04/02 06:31:30;;;;;;;0.10;0.10;;;;;;;7.12;76.11;99255.31;5003664;28;20054;-71
2023/04/02 06:33:56;;;;;;;0.25;0.20;;;;;;;7.25;75.90;99271.09;5007712;28;20038;-70
2023/04/02 06:36:27;;;;;;;0.20;0.20;;;;;;;7.35;74.76;99264.91;5000686;28;20034;-70
2023/04/02 06:39:02;;;;;;;0.20;0.20;;;;;;;7.28;74.91;99267.06;4989161;28;20513;-71
2023/04/02 06:41:28;;;;;;;0.25;0.20;;;;;;;7.44;74.57;99266.03;4989278;28;20057;-71
2023/04/02 06:44:20;;;;;;;0.20;0.20;;;;;;;7.51;73.42;99268.50;5004905;28;20049;-71
2023/04/02 06:47:03;;;;;;;0.20;0.20;;;;;;;7.44;73.33;99265.22;5003030;28;20053;-71
2023/04/02 06:49:35;;;;;;;0.20;0.20;;;;;;;7.48;73.27;99263.59;5004775;28;20061;-72
2023/04/02 06:52:12;;;;;;;0.10;0.10;;;;;;;7.50;73.01;99261.41;5004398;28;20080;-71
2023/04/02 06:54:38;;;;;;;0.20;0.20;;;;;;;7.55;72.79;99268.78;5005555;28;20148;-70
2023/04/02 06:57:11;;;;;;;0.20;0.20;;;;;;;7.54;72.76;99251.63;5004931;28;20128;-70
2023/04/02 06:59:40;;;;;;;0.20;0.20;;;;;;;7.85;72.03;99270.75;5001388;28;20049;-71
2023/04/02 07:02:27;;;;;;;0.10;0.10;;;;;;;7.78;71.30;99273.72;4991732;28;20046;-71
2023/04/02 07:05:00;;;;;;;0.13;0.13;;;;;;;7.73;71.74;99278.38;5005512;28;20053;-71
2023/04/02 07:07:28;;;;;;;0.17;0.17;;;;;;;7.64;71.43;99276.16;4992144;28;20646;-70
2023/04/02 07:09:55;;;;;;;0.20;0.20;;;;;;;7.46;72.00;99282.09;4999756;28;20620;-71
2023/04/02 07:12:23;;;;;;;0.10;0.10;;;;;;;7.43;72.29;99277.19;4989163;28;20112;-71
2023/04/02 07:14:50;;;;;;;0.17;0.17;;;;;;;7.49;71.90;99285.09;5006612;28;20162;-71
2023/04/02 07:17:17;;;;;;;0.20;0.20;;;;;;;7.42;72.05;99281.78;5004797;28;20107;-68
2023/04/02 07:19:48;;;;;;;;;;;;;;;7.47;72.26;99270.13;4987637;28;20086;-69
2023/04/02 07:22:16;;;;;;;0.20;0.20;;;;;;;7.54;71.86;99269.88;4999423;28;19926;-69
2023/04/02 07:24:45;;;;;;;0.10;0.10;;;;;;;7.46;71.80;99282.88;5006545;28;20115;-68
2023/04/02 07:27:13;;;;;;;0.10;0.10;;;;;;;7.32;71.92;99289.91;4657095;28;10000633;-68
2023/04/02 07:29:41;;;;;;;;;;;;;;;7.26;72.24;99293.69;5001974;28;20589;-68
2023/04/02 07:32:08;;;;;;;0.20;0.20;;;;;;;7.29;72.23;99294.00;4998681;28;19932;-68
2023/04/02 07:34:34;;;;;;;0.20;0.20;;;;;;;7.23;71.97;99293.16;4998584;28;20057;-68
2023/04/02 07:37:01;;;;;;;0.10;0.10;;;;;;;7.18;72.57;99298.56;5000009;28;20042;-68
2023/04/02 07:39:27;;;;;;;0.10;0.10;;;;;;;7.23;72.54;99301.31;5003655;28;20101;-68
2023/04/02 07:41:56;;;;;;;0.10;0.10;;;;;;;7.23;72.38;99284.16;4990323;28;20513;-68
2023/04/02 07:44:23;;;;;;;0.17;0.17;;;;;;;7.35;72.29;99298.34;4996682;28;20406;-68
2023/04/02 07:46:49;;;;;;;0.20;0.20;;;;;;;7.48;72.21;99290.78;5001649;28;20448;-69
2023/04/02 07:49:15;;;;;;;0.10;0.10;;;;;;;7.70;71.87;99292.47;5005095;28;20046;-69
2023/04/02 07:51:41;;;;;;;0.10;0.10;;;;;;;7.94;70.98;99312.69;5005002;28;20078;-69
2023/04/02 07:54:09;;;;;;;0.10;0.10;;;;;;;8.00;69.94;99308.09;5003099;28;20104;-69
2023/04/02 07:56:47;;;;;;;0.10;0.10;;;;;;;7.87;70.13;99308.59;5004812;28;20129;-69
2023/04/02 07:59:14;;;;;;;0.13;0.13;;;;;;;7.82;70.51;99300.44;5004434;28;20108;-69
2023/04/02 08:01:41;;;;;;;0.20;0.20;;;;;;;7.76;70.09;99314.00;5001181;28;20215;-69
2023/04/02 08:04:17;;;;;;;0.20;0.20;;;;;;;7.65;70.34;99317.81;4999280;28;20054;-68
2023/04/02 08:06:43;;;;;;;0.20;0.20;;;;;;;7.50;70.82;99318.53;5019588;28;20488;-68
2023/04/02 08:09:09;;;;;;;0.10;0.10;;;;;;;7.46;71.07;99320.16;4997085;28;20534;-69
2023/04/02 08:11:35;;;;;;;0.10;0.10;;;;;;;7.43;71.35;99310.63;4996560;28;20073;-69
2023/04/02 08:14:01;;;;;;;0.10;0.10;;;;;;;7.51;71.04;99322.91;4997377;28;20162;-69
2023/04/02 08:16:42;;;;;;;0.20;0.20;;;;;;;7.55;70.87;99309.59;4993437;28;20481;-68
2023/04/02 08:19:09;;;;;;;0.10;0.10;;;;;;;7.49;70.99;99325.91;5001457;28;20147;-68
2023/04/02 08:21:35;;;;;;;0.22;0.20;;;;;;;7.35;71.36;99330.19;4994510;28;20095;-69
2023/04/02 08:24:02;;;;;;;0.20;0.20;;;;;;;7.35;71.65;99325.56;5002584;28;20517;-68
2023/04/02 08:26:28;;;;;;;0.10;0.10;;;;;;;7.40;71.58;99321.22;5003456;28;20517;-68
2023/04/02 08:28:54;;;;;;;0.10;0.10;;;;;;;7.47;71.67;99322.59;5000279;28;20052;-69
2023/04/02 08:31:22;;;;;;;0.17;0.17;;;;;;;7.52;71.72;99319.94;4991180;28;20085;-69
2023/04/02 08:33:53;;;;;;;0.40;0.20;;;;;;;7.68;71.27;99319.16;4998225;28;20046;-68
2023/04/02 08:36:44;;;;;;;0.10;0.10;;;;;;;7.80;70.70;99315.13;4996647;28;20156;-68
2023/04/02 08:39:13;;;;;;;0.10;0.10;;;;;;;7.74;70.36;99315.38;5000630;28;20096;-68
2023/04/02 08:41:46;;;;;;;0.20;0.20;;;;;;;7.66;70.59;99317.50;5002778;28;20077;-68
2023/04/02 08:44:28;;;;;;;0.10;0.10;;;;;;;7.52;71.31;99333.53;5002255;28;20154;-70
2023/04/02 08:47:00;;;;;;;0.10;0.10;;;;;;;7.53;71.49;99320.72;5003658;28;20100;-70
2023/04/02 08:49:33;;;;;;;0.17;0.17;;;;;;;7.43;71.67;99321.50;5001299;28;20038;-70
2023/04/02 08:52:00;;;;;;;0.10;0.10;;;;;;;7.46;72.02;99320.97;5000229;28;20046;-71
2023/04/02 08:54:28;;;;;;;0.20;0.20;;;;;;;7.44;72.03;99301.38;5004761;28;20053;-71
2023/04/02 08:56:58;;;;;;;0.20;0.20;;;;;;;7.64;71.28;99314.25;5002447;28;20057;-71
2023/04/02 08:59:31;;;;;;;0.25;0.20;;;;;;;7.64;71.53;99308.81;4997298;28;20053;-70
2023/04/02 09:02:28;;;;;;;0.20;0.20;;;;;;;7.70;71.64;99323.25;5002832;28;20065;-70
2023/04/02 09:04:57;;;;;;;0.17;0.17;;;;;;;7.79;71.52;99323.53;4963935;28;20080;-70
2023/04/02 09:07:24;;;;;;;0.10;0.10;;;;;;;7.83;71.30;99330.09;5001600;28;20148;-70
2023/04/02 09:09:51;;;;;;;0.10;0.10;;;;;;;7.79;71.13;99307.22;5000822;28;20049;-70
2023/04/02 09:12:19;;;;;;;0.10;0.10;;;;;;;7.80;71.14;99322.47;4998863;28;20038;-71
2023/04/02 09:14:58;;;;;;;0.20;0.20;;;;;;;7.63;71.49;99325.38;5013250;28;20053;-70
2023/04/02 09:17:25;;;;;;;;;;;;;;;7.58;71.85;99325.38;5002029;28;20100;-70
2023/04/02 09:19:56;;;;;;;0.30;0.30;;;;;;;7.59;71.73;99313.41;5003992;28;19933;-68
2023/04/02 09:22:26;;;;;;;0.20;0.20;;;;;;;7.62;71.95;99323.75;5001506;28;20128;-70
2023/04/02 09:24:52;;;;;;;0.20;0.20;;;;;;;7.79;72.00;99326.28;4998459;28;20054;-70
2023/04/02 09:27:21;;;;;;;0.10;0.10;;;;;;;7.82;71.56;99314.84;4993381;28;20556;-71
2023/04/02 09:29:48;;;;;;;0.20;0.20;;;;;;;7.94;71.50;99322.75;4999735;28;20049;-70
2023/04/02 09:32:38;;;;;;;0.10;0.10;;;;;;;8.03;71.28;99323.03;5004232;28;20076;-68
2023/04/02 09:35:11;;;;;;;0.10;0.10;;;;;;;8.08;70.96;99318.44;4996091;28;20069;-68
2023/04/02 09:37:38;;;;;;;0.10;0.10;;;;;;;8.12;70.73;99318.72;5001591;28;20112;-70
2023/04/02 09:40:23;;;;;;;0.22;0.20;;;;;;;8.13;70.46;99339.41;5002344;28;20100;-70
2023/04/02 09:43:02;;;;;;;0.10;0.10;;;;;;;8.09;70.62;99336.41;5005896;28;20077;-70
2023/04/02 09:45:28;;;;;;;0.15;0.15;;;;;;;7.98;71.23;99326.59;5002903;28;20510;-68
2023/04/02 09:47:57;;;;;;;0.10;0.10;;;;;;;7.88;71.25;99308.34;5005195;28;20046;-68
2023/04/02 09:50:30;;;;;;;0.20;0.20;;;;;;;8.00;71.18;99327.13;5002751;28;20523;-68
2023/04/02 09:52:57;;;;;;;0.20;0.20;;;;;;;8.05;70.99;99326.34;5002911;28;21204;-68
2023/04/02 09:55:25;;;;;;;0.10;0.10;;;;;;;7.91;71.58;99326.03;5003339;28;20092;-68
2023/04/02 09:58:13;;;;;;;0.10;0.10;;;;;;;7.97;71.48;99327.69;4982812;28;20070;-70
2023/04/02 10:00:40;;;;;;;;;;;;;;;8.05;71.39;99318.16;5002426;28;20069;-70
2023/04/02 10:03:20;;;;;;;0.10;0.10;;;;;;;8.14;71.13;99323.91;4998651;28;19926;-71
2023/04/02 10:06:02;;;;;;;0.10;0.10;;;;;;;8.06;71.09;99325.25;5002837;28;20054;-70
2023/04/02 10:08:29;;;;;;;0.20;0.20;;;;;;;8.01;71.49;99325.22;5000349;28;20141;-70
2023/04/02 10:10:56;;;;;;;;;;;;;;;8.09;71.33;99333.69;5002896;28;20253;-68
2023/04/02 10:13:27;;;;;;;0.13;0.13;;;;;;;8.03;71.55;99332.03;5002102;28;19925;-68
2023/04/02 10:15:59;;;;;;;0.20;0.20;;;;;;;8.11;71.64;99318.97;5018389;28;20057;-69
2023/04/02 10:18:35;;;;;;;0.20;0.20;;;;;;;8.21;71.17;99319.81;5002583;28;20046;-69
2023/04/02 10:21:05;;;;;;;0.10;0.10;;;;;;;8.21;70.90;99336.16;5000230;28;20058;-69
2023/04/02 10:23:32;;;;;;;0.25;0.25;;;;;;;8.17;71.60;99326.06;5001560;28;20141;-68
2023/04/02 10:26:11;;;;;;;0.10;0.10;;;;;;;8.33;71.26;99329.63;4998183;28;20460;-68
2023/04/02 10:28:51;;;;;;;0.20;0.20;;;;;;;8.60;70.82;99337.56;5003253;28;20548;-69
2023/04/02 10:31:24;;;;;;;0.20;0.20;;;;;;;8.99;69.15;99327.16;4997873;28;20115;-69
2023/04/02 10:33:57;;;;;;;0.30;0.30;;;;;;;9.30;68.15;99332.53;5000817;28;20057;-69
2023/04/02 10:36:35;;;;;;;0.20;0.20;;;;;;;9.58;67.45;99320.16;5002095;28;20041;-69
2023/04/02 10:39:07;;;;;;;0.28;0.28;;;;;;;9.90;65.11;99320.81;4999548;28;20436;-69
2023/04/02 10:41:41;;;;;;;0.20;0.20;;;;;;;10.02;64.62;99326.75;5004961;28;20046;-69
2023/04/02 10:44:23;;;;;;;0.30;0.30;;;;;;;10.27;64.28;99318.66;5003258;28;20524;-69
2023/04/02 10:46:59;;;;;;;0.32;0.32;;;;;;;10.45;62.70;99314.44;4998956;28;20061;-70
2023/04/02 10:49:36;;;;;;;0.20;0.20;;;;;;;10.54;62.32;99311.94;4995845;28;20054;-70
2023/04/02 10:52:08;;;;;;;0.25;0.25;;;;;;;10.52;62.87;99303.19;5004707;28;20152;-70
2023/04/02 10:54:45;;;;;;;0.28;0.28;;;;;;;10.99;61.29;99314.53;5007856;28;20050;-70
2023/04/02 10:57:21;;;;;;;0.40;0.40;;;;;;;11.31;60.35;99313.88;4653349;28;9999729;-70
2023/04/02 10:59:52;;;;;;;0.20;0.20;;;;;;;12.05;57.19;99320.09;5001500;28;20477;-70
2023/04/02 11:02:40;;;;;;;0.38;0.30;;;;;;;11.42;58.76;99330.19;4993070;28;20041;-70
2023/04/02 11:05:17;;;;;;;0.30;0.30;;;;;;;11.84;57.62;99311.31;4996756;28;20073;-69
2023/04/02 11:07:59;;;;;;;0.30;0.30;;;;;;;11.71;57.93;99319.16;4995125;28;20042;-70
2023/04/02 11:10:29;;;;;;;0.30;0.30;;;;;;;11.53;58.14;99311.72;4992536;28;20501;-69
2023/04/02 11:13:00;;;;;;;0.40;0.40;;;;;;;11.53;58.88;99312.53;4989123;28;20119;-70
2023/04/02 11:15:28;;;;;;;0.40;0.40;;;;;;;11.75;58.55;99311.97;4991320;28;20057;-69
2023/04/02 11:17:54;;;;;;;0.30;0.30;;;;;;;12.06;57.40;99305.28;4988991;28;20108;-70
2023/04/02 11:21:03;;;;;;;0.30;0.30;;;;;;;12.37;56.74;99310.28;4990201;28;20052;-70
2023/04/02 11:23:51;;;;;;;0.40;0.40;;;;;;;12.49;55.51;99304.34;4992163;28;20063;-70
2023/04/02 11:26:43;;;;;;;0.20;0.20;;;;;;;12.39;55.68;99302.56;4978615;28;20041;-71
2023/04/02 11:29:26;;;;;;;0.30;0.30;;;;;;;12.16;56.67;99291.44;4996759;28;20050;-69
2023/04/02 11:32:25;;;;;;;0.28;0.28;;;;;;;12.07;56.58;99306.09;4990878;28;20046;-69
2023/04/02 11:35:25;;;;;;;0.20;0.20;;;;;;;11.23;58.38;99311.78;4984747;28;20050;-70
2023/04/02 11:37:53;;;;;;;0.20;0.20;;;;;;;10.63;60.47;99310.22;4998720;28;20046;-70
2023/04/02 11:40:54;;;;;;;0.20;0.20;;;;;;;10.25;61.81;99293.56;4999140;28;20041;-70
2023/04/02 11:43:46;;;;;;;0.20;0.20;;;;;;;10.38;62.07;99313.94;4925861;28;20578;-70
2023/04/02 11:46:41;;;;;;;0.20;0.20;;;;;;;10.44;62.06;99302.72;4940012;28;20086;-70
2023/04/02 11:49:36;;;;;;;0.13;0.13;;;;;;;10.29;62.42;99303.59;4939339;28;20059;-69
2023/04/02 11:52:04;;;;;;;0.20;0.20;;;;;;;10.11;63.28;99317.94;4938995;28;20110;-70
2023/04/02 11:54:35;;;;;;;0.13;0.13;;;;;;;9.94;63.53;99289.09;4906846;28;21090;-70
2023/04/02 11:57:09;;;;;;;0.20;0.20;;;;;;;10.10;63.58;99310.84;4938669;28;20133;-69
2023/04/02 11:59:43;;;;;;;0.20;0.20;;;;;;;10.05;63.62;99298.88;4936890;28;20616;-70
2023/04/02 12:02:20;;;;;;;0.20;0.20;;;;;;;10.07;63.97;99309.53;4936313;28;20138;-70
2023/04/02 12:05:08;;;;;;;0.20;0.20;;;;;;;10.05;64.07;99311.69;4920944;28;20055;-71
2023/04/02 12:07:50;;;;;;;;;;;;;;;9.98;64.06;99320.22;4905692;28;20199;-69
2023/04/02 12:10:19;;;;;;;0.17;0.17;;;;;;;9.96;64.22;99306.03;4936602;28;19926;-69
2023/04/02 12:12:47;;;;;;;0.20;0.20;;;;;;;9.94;64.41;99321.88;4941385;28;20047;-69